APK229 HKJK-HTDA
Flight info
| Callsign | APK229 |
|---|---|
| Flight time | 0h 55m |
| Altitude | 31000 |
| Route | ATUDU1D GABSO UL445 GEREN XUKER1C |
| Aircraft | B77W/H-SDE1E2E3FGHIJ2J3J4J5M1RWXY/LB1D1 |
Departure
| Time | 2026-04-26 10:38 |
|---|---|
| Airport | Jomo Kenyatta International Airport (HKJK) |
Arrival
| Time | 2026-04-26 11:33 |
|---|---|
| Airport | Julius Nyerere International Airport (HTDA) |
| Time | Latitude | Longitude | Altitude | Speed | Heading |
|---|---|---|---|---|---|
| 2026-04-26 09:33 | -1.32840 | 36.92550 | 5343 ft | 0 kts | 193° |
| 2026-04-26 10:28 | -1.32827 | 36.92553 | 5344 ft | 9 kts | 193° |
| 2026-04-26 10:28 | -1.32812 | 36.92558 | 5342 ft | 13 kts | 207° |
| 2026-04-26 10:28 | -1.32799 | 36.92565 | 5344 ft | 21 kts | 234° |
| 2026-04-26 10:29 | -1.32793 | 36.92576 | 5341 ft | 21 kts | 268° |
| 2026-04-26 10:29 | -1.32795 | 36.92593 | 5341 ft | 10 kts | 287° |
| 2026-04-26 10:29 | -1.32802 | 36.92612 | 5344 ft | 10 kts | 289° |
| 2026-04-26 10:29 | -1.32805 | 36.92622 | 5342 ft | 9 kts | 288° |
| 2026-04-26 10:30 | -1.32806 | 36.92624 | 5342 ft | 16 kts | 288° |
| 2026-04-26 10:33 | -1.32793 | 36.92584 | 5341 ft | 12 kts | 286° |
| 2026-04-26 10:34 | -1.32784 | 36.92503 | 5345 ft | 12 kts | 274° |
| 2026-04-26 10:34 | -1.32778 | 36.92422 | 5347 ft | 12 kts | 270° |
| 2026-04-26 10:34 | -1.32808 | 36.92346 | 5346 ft | 12 kts | 238° |
| 2026-04-26 10:34 | -1.32856 | 36.92281 | 5346 ft | 10 kts | 244° |
| 2026-04-26 10:35 | -1.32844 | 36.92245 | 5348 ft | 6 kts | 308° |
| 2026-04-26 10:35 | -1.32802 | 36.92212 | 5346 ft | 15 kts | 320° |
| 2026-04-26 10:35 | -1.32797 | 36.92138 | 5345 ft | 17 kts | 239° |
| 2026-04-26 10:35 | -1.32890 | 36.92013 | 5346 ft | 23 kts | 233° |
| 2026-04-26 10:36 | -1.32921 | 36.91970 | 5348 ft | 23 kts | 234° |
| 2026-04-26 10:36 | -1.32998 | 36.91823 | 5346 ft | 7 kts | 296° |
| 2026-04-26 10:36 | -1.32960 | 36.91793 | 5345 ft | 7 kts | 326° |
| 2026-04-26 10:36 | -1.32905 | 36.91756 | 5346 ft | 13 kts | 325° |
| 2026-04-26 10:37 | -1.32790 | 36.91675 | 5346 ft | 19 kts | 330° |
| 2026-04-26 10:37 | -1.32707 | 36.91712 | 5346 ft | 22 kts | 53° |
| 2026-04-26 10:37 | -1.32511 | 36.91982 | 5346 ft | 87 kts | 54° |
| 2026-04-26 10:37 | -1.31979 | 36.92702 | 5346 ft | 168 kts | 54° |
| 2026-04-26 10:38 | -1.31173 | 36.93802 | 5663 ft | 209 kts | 56° |
| 2026-04-26 10:38 | -1.30339 | 36.95025 | 6709 ft | 207 kts | 63° |
| 2026-04-26 10:38 | -1.29843 | 36.97797 | 8432 ft | 223 kts | 85° |
| 2026-04-26 10:39 | -1.29668 | 36.99469 | 8836 ft | 260 kts | 84° |
| 2026-04-26 10:39 | -1.29466 | 37.01331 | 9630 ft | 281 kts | 84° |
| 2026-04-26 10:39 | -1.29237 | 37.03386 | 10105 ft | 301 kts | 84° |
| 2026-04-26 10:39 | -1.29003 | 37.05427 | 10099 ft | 290 kts | 84° |
| 2026-04-26 10:40 | -1.28773 | 37.07411 | 10138 ft | 289 kts | 84° |
| 2026-04-26 10:40 | -1.28536 | 37.09466 | 10365 ft | 309 kts | 84° |
| 2026-04-26 10:40 | -1.28409 | 37.11639 | 10501 ft | 330 kts | 96° |
| 2026-04-26 10:40 | -1.28539 | 37.12410 | 10542 ft | 339 kts | 105° |
| 2026-04-26 10:41 | -1.30933 | 37.15679 | 11047 ft | 374 kts | 149° |
| 2026-04-26 10:41 | -1.33386 | 37.16559 | 11694 ft | 380 kts | 167° |
| 2026-04-26 10:41 | -1.36019 | 37.17034 | 12171 ft | 387 kts | 170° |
| 2026-04-26 10:41 | -1.38710 | 37.17460 | 12699 ft | 395 kts | 170° |
| 2026-04-26 10:42 | -1.41431 | 37.17882 | 13590 ft | 397 kts | 170° |
| 2026-04-26 10:42 | -1.43245 | 37.18171 | 14109 ft | 401 kts | 170° |
| 2026-04-26 10:42 | -1.46971 | 37.18787 | 15034 ft | 408 kts | 169° |
| 2026-04-26 10:42 | -1.49786 | 37.19271 | 15778 ft | 412 kts | 169° |
| 2026-04-26 10:43 | -1.52628 | 37.19771 | 16508 ft | 417 kts | 168° |
| 2026-04-26 10:43 | -1.55494 | 37.20282 | 17182 ft | 422 kts | 168° |
| 2026-04-26 10:43 | -1.58309 | 37.20788 | 17833 ft | 426 kts | 168° |
| 2026-04-26 10:43 | -1.61245 | 37.21318 | 18518 ft | 431 kts | 168° |
| 2026-04-26 10:44 | -1.64207 | 37.21852 | 19073 ft | 432 kts | 168° |
| 2026-04-26 10:44 | -1.67179 | 37.22389 | 19612 ft | 437 kts | 168° |
| 2026-04-26 10:44 | -1.70183 | 37.22931 | 20139 ft | 442 kts | 168° |
| 2026-04-26 10:44 | -1.73184 | 37.23628 | 20704 ft | 444 kts | 161° |
| 2026-04-26 10:45 | -1.76120 | 37.24617 | 21265 ft | 447 kts | 159° |
| 2026-04-26 10:45 | -1.79061 | 37.25659 | 21833 ft | 451 kts | 159° |
| 2026-04-26 10:45 | -1.82029 | 37.26720 | 22377 ft | 455 kts | 159° |
| 2026-04-26 10:45 | -1.84008 | 37.27427 | 22719 ft | 457 kts | 159° |
| 2026-04-26 10:46 | -1.88040 | 37.28854 | 23412 ft | 462 kts | 159° |
| 2026-04-26 10:46 | -1.91092 | 37.29924 | 23884 ft | 466 kts | 159° |
| 2026-04-26 10:46 | -1.94170 | 37.30996 | 24300 ft | 469 kts | 159° |
| 2026-04-26 10:46 | -1.97226 | 37.32057 | 24724 ft | 472 kts | 159° |
| 2026-04-26 10:47 | -2.00337 | 37.33136 | 25128 ft | 474 kts | 159° |
| 2026-04-26 10:47 | -2.03475 | 37.34223 | 25541 ft | 477 kts | 159° |
| 2026-04-26 10:47 | -2.06618 | 37.35312 | 25950 ft | 480 kts | 159° |
| 2026-04-26 10:47 | -2.09787 | 37.36411 | 26342 ft | 483 kts | 160° |
| 2026-04-26 10:48 | -2.12976 | 37.37516 | 26737 ft | 486 kts | 160° |
| 2026-04-26 10:48 | -2.16176 | 37.38626 | 27118 ft | 488 kts | 160° |
| 2026-04-26 10:48 | -2.19399 | 37.39744 | 27494 ft | 491 kts | 160° |
| 2026-04-26 10:48 | -2.22633 | 37.40866 | 27859 ft | 494 kts | 160° |
| 2026-04-26 10:49 | -2.25882 | 37.41993 | 28208 ft | 496 kts | 160° |
| 2026-04-26 10:49 | -2.29112 | 37.43114 | 28551 ft | 499 kts | 160° |
| 2026-04-26 10:49 | -2.31328 | 37.43883 | 28770 ft | 500 kts | 160° |
| 2026-04-26 10:49 | -2.35694 | 37.45398 | 29180 ft | 503 kts | 160° |
| 2026-04-26 10:50 | -2.37932 | 37.46174 | 29373 ft | 505 kts | 160° |
| 2026-04-26 10:50 | -2.41258 | 37.47328 | 29741 ft | 505 kts | 160° |
| 2026-04-26 10:50 | -2.44577 | 37.48480 | 30235 ft | 503 kts | 160° |
| 2026-04-26 10:50 | -2.48946 | 37.49995 | 30751 ft | 502 kts | 160° |
| 2026-04-26 10:51 | -2.51140 | 37.50757 | 30970 ft | 502 kts | 160° |
| 2026-04-26 10:51 | -2.57807 | 37.53073 | 31066 ft | 508 kts | 160° |
| 2026-04-26 10:52 | -2.64464 | 37.55383 | 31070 ft | 503 kts | 160° |
| 2026-04-26 10:52 | -2.71064 | 37.57674 | 31091 ft | 501 kts | 160° |
| 2026-04-26 10:53 | -2.77614 | 37.59949 | 31092 ft | 501 kts | 160° |
| 2026-04-26 10:53 | -2.84203 | 37.62237 | 31096 ft | 502 kts | 160° |
| 2026-04-26 10:54 | -2.94109 | 37.65678 | 31094 ft | 503 kts | 160° |
| 2026-04-26 10:54 | -3.00733 | 37.67979 | 31090 ft | 503 kts | 160° |
| 2026-04-26 10:55 | -3.07363 | 37.70282 | 31083 ft | 504 kts | 160° |
| 2026-04-26 10:55 | -3.13997 | 37.72588 | 31073 ft | 504 kts | 160° |
| 2026-04-26 10:56 | -3.20577 | 37.74875 | 31060 ft | 504 kts | 160° |
| 2026-04-26 10:56 | -3.27218 | 37.77182 | 31051 ft | 504 kts | 160° |
| 2026-04-26 10:57 | -3.33834 | 37.79483 | 31031 ft | 501 kts | 160° |
| 2026-04-26 10:57 | -3.40387 | 37.81762 | 31021 ft | 496 kts | 160° |
| 2026-04-26 10:58 | -3.46905 | 37.84028 | 31020 ft | 496 kts | 160° |
| 2026-04-26 10:58 | -3.53420 | 37.86294 | 31011 ft | 496 kts | 160° |
| 2026-04-26 10:59 | -3.59946 | 37.88564 | 31009 ft | 497 kts | 160° |
| 2026-04-26 10:59 | -3.64317 | 37.90085 | 31000 ft | 497 kts | 161° |
| 2026-04-26 11:00 | -3.73077 | 37.93133 | 30990 ft | 499 kts | 160° |
| 2026-04-26 11:00 | -3.79597 | 37.95402 | 30987 ft | 499 kts | 161° |
| 2026-04-26 11:01 | -3.86167 | 37.97802 | 30977 ft | 500 kts | 158° |
| 2026-04-26 11:01 | -3.92577 | 38.00406 | 30978 ft | 500 kts | 157° |
| 2026-04-26 11:02 | -3.99028 | 38.03047 | 30967 ft | 501 kts | 158° |
| 2026-04-26 11:02 | -4.05497 | 38.05655 | 30963 ft | 501 kts | 158° |
| 2026-04-26 11:03 | -4.11979 | 38.08246 | 30976 ft | 501 kts | 158° |
| 2026-04-26 11:03 | -4.18459 | 38.10834 | 30957 ft | 501 kts | 158° |
| 2026-04-26 11:04 | -4.24939 | 38.13425 | 30967 ft | 501 kts | 158° |
| 2026-04-26 11:04 | -4.31406 | 38.16013 | 30969 ft | 501 kts | 158° |
| 2026-04-26 11:05 | -4.37884 | 38.18605 | 30964 ft | 501 kts | 158° |
| 2026-04-26 11:05 | -4.44354 | 38.21195 | 30975 ft | 501 kts | 158° |
| 2026-04-26 11:06 | -4.50832 | 38.23789 | 30977 ft | 501 kts | 158° |
| 2026-04-26 11:06 | -4.57300 | 38.26379 | 30973 ft | 501 kts | 158° |
| 2026-04-26 11:07 | -4.63769 | 38.28970 | 30977 ft | 501 kts | 158° |
| 2026-04-26 11:07 | -4.70198 | 38.31545 | 30983 ft | 501 kts | 158° |
| 2026-04-26 11:08 | -4.76672 | 38.34139 | 30982 ft | 501 kts | 158° |
| 2026-04-26 11:08 | -4.83145 | 38.36733 | 30984 ft | 501 kts | 158° |
| 2026-04-26 11:09 | -4.89629 | 38.39333 | 30983 ft | 501 kts | 158° |
| 2026-04-26 11:09 | -4.96100 | 38.41928 | 30975 ft | 501 kts | 158° |
| 2026-04-26 11:10 | -5.02574 | 38.44525 | 30977 ft | 501 kts | 158° |
| 2026-04-26 11:10 | -5.08584 | 38.47910 | 30963 ft | 496 kts | 134° |
| 2026-04-26 11:11 | -5.13287 | 38.52949 | 30965 ft | 494 kts | 132° |
| 2026-04-26 11:11 | -5.17953 | 38.57942 | 30964 ft | 495 kts | 133° |
| 2026-04-26 11:12 | -5.22710 | 38.62915 | 30958 ft | 494 kts | 133° |
| 2026-04-26 11:12 | -5.27504 | 38.67879 | 30768 ft | 497 kts | 134° |
| 2026-04-26 11:13 | -5.29934 | 38.70395 | 30074 ft | 503 kts | 134° |
| 2026-04-26 11:13 | -5.32362 | 38.72910 | 29424 ft | 499 kts | 134° |
| 2026-04-26 11:13 | -5.34763 | 38.75398 | 28812 ft | 494 kts | 134° |
| 2026-04-26 11:13 | -5.37141 | 38.77861 | 28235 ft | 488 kts | 133° |
| 2026-04-26 11:14 | -5.39492 | 38.80301 | 27686 ft | 483 kts | 133° |
| 2026-04-26 11:14 | -5.41814 | 38.82712 | 27118 ft | 478 kts | 133° |
| 2026-04-26 11:14 | -5.44109 | 38.85095 | 26576 ft | 473 kts | 133° |
| 2026-04-26 11:14 | -5.46383 | 38.87457 | 26041 ft | 468 kts | 133° |
| 2026-04-26 11:15 | -5.48639 | 38.89800 | 25489 ft | 464 kts | 133° |
| 2026-04-26 11:15 | -5.50864 | 38.92110 | 25157 ft | 455 kts | 132° |
| 2026-04-26 11:15 | -5.53035 | 38.94364 | 24983 ft | 443 kts | 132° |
| 2026-04-26 11:15 | -5.55185 | 38.96597 | 24961 ft | 447 kts | 132° |
| 2026-04-26 11:16 | -5.57344 | 38.98842 | 24933 ft | 446 kts | 132° |
| 2026-04-26 11:16 | -5.59466 | 39.01047 | 24928 ft | 443 kts | 132° |
| 2026-04-26 11:16 | -5.61596 | 39.03261 | 24923 ft | 440 kts | 132° |
| 2026-04-26 11:16 | -5.63714 | 39.05461 | 24667 ft | 436 kts | 132° |
| 2026-04-26 11:17 | -5.65816 | 39.07646 | 24228 ft | 431 kts | 132° |
| 2026-04-26 11:17 | -5.67856 | 39.09766 | 23360 ft | 417 kts | 132° |
| 2026-04-26 11:17 | -5.69859 | 39.11849 | 22086 ft | 412 kts | 132° |
| 2026-04-26 11:17 | -5.71835 | 39.13905 | 21020 ft | 406 kts | 133° |
| 2026-04-26 11:18 | -5.73773 | 39.15920 | 20401 ft | 397 kts | 133° |
| 2026-04-26 11:18 | -5.75890 | 39.17696 | 20179 ft | 400 kts | 149° |
| 2026-04-26 11:18 | -5.78474 | 39.18725 | 20009 ft | 403 kts | 168° |
| 2026-04-26 11:18 | -5.81260 | 39.19076 | 19952 ft | 402 kts | 173° |
| 2026-04-26 11:19 | -5.84070 | 39.19357 | 19965 ft | 413 kts | 173° |
| 2026-04-26 11:19 | -5.86950 | 39.19641 | 19948 ft | 418 kts | 173° |
| 2026-04-26 11:19 | -5.89837 | 39.19933 | 19942 ft | 415 kts | 173° |
| 2026-04-26 11:19 | -5.92693 | 39.20230 | 19925 ft | 410 kts | 173° |
| 2026-04-26 11:20 | -5.95519 | 39.20531 | 19845 ft | 406 kts | 173° |
| 2026-04-26 11:20 | -5.97377 | 39.20733 | 19626 ft | 404 kts | 173° |
| 2026-04-26 11:20 | -6.01068 | 39.21138 | 19062 ft | 401 kts | 173° |
| 2026-04-26 11:20 | -6.03878 | 39.21448 | 18566 ft | 400 kts | 173° |
| 2026-04-26 11:21 | -6.06602 | 39.21750 | 18076 ft | 399 kts | 173° |
| 2026-04-26 11:21 | -6.09384 | 39.22059 | 17604 ft | 395 kts | 172° |
| 2026-04-26 11:21 | -6.12071 | 39.22356 | 17206 ft | 390 kts | 172° |
| 2026-04-26 11:21 | -6.14754 | 39.22654 | 16788 ft | 386 kts | 172° |
| 2026-04-26 11:22 | -6.17415 | 39.22949 | 16318 ft | 384 kts | 173° |
| 2026-04-26 11:22 | -6.20062 | 39.23242 | 15883 ft | 381 kts | 172° |
| 2026-04-26 11:22 | -6.22637 | 39.23528 | 15622 ft | 357 kts | 173° |
| 2026-04-26 11:22 | -6.25010 | 39.23789 | 15382 ft | 331 kts | 172° |
| 2026-04-26 11:23 | -6.27257 | 39.24037 | 14712 ft | 322 kts | 172° |
| 2026-04-26 11:23 | -6.29489 | 39.24285 | 13804 ft | 323 kts | 172° |
| 2026-04-26 11:23 | -6.31718 | 39.24533 | 12813 ft | 322 kts | 172° |
| 2026-04-26 11:23 | -6.33941 | 39.24780 | 11839 ft | 321 kts | 172° |
| 2026-04-26 11:24 | -6.36158 | 39.25027 | 10905 ft | 320 kts | 172° |
| 2026-04-26 11:24 | -6.38367 | 39.25272 | 10002 ft | 319 kts | 172° |
| 2026-04-26 11:24 | -6.40537 | 39.25512 | 9376 ft | 307 kts | 172° |
| 2026-04-26 11:24 | -6.42593 | 39.25739 | 8922 ft | 290 kts | 172° |
| 2026-04-26 11:25 | -6.44553 | 39.25956 | 8458 ft | 277 kts | 172° |
| 2026-04-26 11:25 | -6.46419 | 39.26163 | 8088 ft | 261 kts | 172° |
| 2026-04-26 11:25 | -6.48174 | 39.26357 | 7778 ft | 249 kts | 172° |
| 2026-04-26 11:25 | -6.49931 | 39.26554 | 7505 ft | 261 kts | 172° |
| 2026-04-26 11:26 | -6.51789 | 39.26762 | 7163 ft | 273 kts | 172° |
| 2026-04-26 11:26 | -6.53691 | 39.26974 | 6832 ft | 276 kts | 172° |
| 2026-04-26 11:26 | -6.55574 | 39.27183 | 6509 ft | 276 kts | 173° |
| 2026-04-26 11:26 | -6.57480 | 39.27394 | 6180 ft | 275 kts | 173° |
| 2026-04-26 11:27 | -6.59382 | 39.27605 | 5863 ft | 274 kts | 173° |
| 2026-04-26 11:27 | -6.61240 | 39.27811 | 5558 ft | 273 kts | 173° |
| 2026-04-26 11:27 | -6.63118 | 39.28019 | 5305 ft | 270 kts | 173° |
| 2026-04-26 11:27 | -6.64923 | 39.28290 | 5095 ft | 252 kts | 161° |
| 2026-04-26 11:28 | -6.66400 | 39.29114 | 4800 ft | 240 kts | 139° |
| 2026-04-26 11:28 | -6.67592 | 39.30291 | 4540 ft | 241 kts | 136° |
| 2026-04-26 11:28 | -6.68784 | 39.31487 | 4251 ft | 243 kts | 136° |
| 2026-04-26 11:28 | -6.69986 | 39.32693 | 3957 ft | 243 kts | 136° |
| 2026-04-26 11:29 | -6.71279 | 39.33727 | 3704 ft | 233 kts | 158° |
| 2026-04-26 11:29 | -6.72298 | 39.33978 | 3624 ft | 225 kts | 178° |
| 2026-04-26 11:29 | -6.74287 | 39.33544 | 3300 ft | 218 kts | 204° |
| 2026-04-26 11:29 | -6.75496 | 39.32666 | 3080 ft | 212 kts | 221° |
| 2026-04-26 11:30 | -6.76534 | 39.31628 | 2796 ft | 209 kts | 223° |
| 2026-04-26 11:30 | -6.77203 | 39.30944 | 2630 ft | 204 kts | 223° |
| 2026-04-26 11:30 | -6.78475 | 39.29647 | 2275 ft | 182 kts | 223° |
| 2026-04-26 11:30 | -6.79331 | 39.28772 | 1992 ft | 169 kts | 223° |
| 2026-04-26 11:31 | -6.80119 | 39.27974 | 1786 ft | 153 kts | 221° |
| 2026-04-26 11:31 | -6.80844 | 39.27242 | 1578 ft | 141 kts | 221° |
| 2026-04-26 11:31 | -6.81521 | 39.26566 | 1417 ft | 132 kts | 220° |
| 2026-04-26 11:31 | -6.82203 | 39.25873 | 1190 ft | 139 kts | 223° |
| 2026-04-26 11:32 | -6.82639 | 39.25398 | 1103 ft | 144 kts | 224° |
| 2026-04-26 11:32 | -6.83127 | 39.24896 | 974 ft | 157 kts | 221° |
| 2026-04-26 11:32 | -6.84480 | 39.23591 | 661 ft | 157 kts | 223° |
| 2026-04-26 11:32 | -6.85240 | 39.22821 | 501 ft | 155 kts | 221° |
| 2026-04-26 11:33 | -6.86000 | 39.22075 | 301 ft | 149 kts | 223° |
| 2026-04-26 11:33 | -6.86723 | 39.21345 | 204 ft | 143 kts | 223° |
| 2026-04-26 11:33 | -6.87340 | 39.20731 | 183 ft | 100 kts | 225° |
| 2026-04-26 11:33 | -6.87703 | 39.20371 | 201 ft | 47 kts | 225° |
| 2026-04-26 11:34 | -6.87794 | 39.20276 | 197 ft | 6 kts | 239° |
| 2026-04-26 11:34 | -6.87777 | 39.20228 | 198 ft | 10 kts | 309° |
| 2026-04-26 11:34 | -6.87720 | 39.20168 | 203 ft | 6 kts | 314° |
| 2026-04-26 11:34 | -6.87694 | 39.20151 | 199 ft | 3 kts | 348° |
| 2026-04-26 11:35 | -6.87626 | 39.20192 | 202 ft | 25 kts | 44° |
| 2026-04-26 11:35 | -6.87458 | 39.20368 | 204 ft | 39 kts | 46° |
| 2026-04-26 11:35 | -6.87273 | 39.20554 | 203 ft | 37 kts | 45° |
| 2026-04-26 11:35 | -6.87092 | 39.20734 | 198 ft | 36 kts | 45° |
| 2026-04-26 11:36 | -6.86917 | 39.20909 | 184 ft | 34 kts | 45° |
| 2026-04-26 11:36 | -6.86758 | 39.21055 | 195 ft | 22 kts | 20° |
| 2026-04-26 11:36 | -6.86586 | 39.21148 | 195 ft | 22 kts | 45° |
| 2026-04-26 11:36 | -6.86513 | 39.21222 | 201 ft | 20 kts | 45° |
| 2026-04-26 11:37 | -6.86480 | 39.21236 | 195 ft | 4 kts | 353° |
| 2026-04-26 11:37 | -6.86436 | 39.21199 | 198 ft | 7 kts | 315° |
| 2026-04-26 11:37 | -6.86431 | 39.21195 | 198 ft | 0 kts | 315° |